Time;durP1;ratioP1;P1;durP2;ratioP2;P2;SDS_P1;SDS_P2;PMS_P1;PMS_P2;Temp;Humidity;BMP_temperature;BMP_pressure;BME280_temperature;BME280_humidity;BME280_pressure;Samples;Min_cycle;Max_cycle;Signal;HPM_P1;HPM_P2
2021/09/02 00:01:29;;;;;;;7.57;6.47;;;;;;;;;;5036758;28;20038;-66
2021/09/02 00:03:56;;;;;;;9.95;6.68;;;;;;;;;;5032275;28;20045;-66
2021/09/02 00:06:22;;;;;;;10.98;6.57;;;;;;;;;;5037009;28;20041;-66
2021/09/02 00:08:48;;;;;;;9.73;6.60;;;;;;;;;;5030043;28;20060;-66
2021/09/02 00:11:15;;;;;;;10.70;7.95;;;;;;;;;;5030989;28;20091;-66
2021/09/02 00:13:41;;;;;;;8.57;6.53;;;;;;;;;;5035783;28;20539;-66
2021/09/02 00:16:07;;;;;;;7.18;5.50;;;;;;;;;;5030201;28;20115;-66
2021/09/02 00:18:33;;;;;;;7.45;6.28;;;;;;;;;;5033802;28;20037;-66
2021/09/02 00:20:59;;;;;;;10.23;6.63;;;;;;;;;;5028407;28;20550;-66
2021/09/02 00:23:25;;;;;;;8.52;6.25;;;;;;;;;;5035510;28;20040;-66
2021/09/02 00:25:51;;;;;;;8.43;6.40;;;;;;;;;;5029508;28;20069;-66
2021/09/02 00:28:17;;;;;;;8.77;6.03;;;;;;;;;;5032109;28;20044;-66
2021/09/02 00:30:44;;;;;;;7.82;5.60;;;;;;;;;;5027700;28;20048;-66
2021/09/02 00:33:19;;;;;;;7.90;5.97;;;;;;;;;;5033812;28;20040;-66
2021/09/02 00:35:46;;;;;;;8.77;6.90;;;;;;;;;;5028956;28;20494;-66
2021/09/02 00:38:13;;;;;;;8.63;6.22;;;;;;;;;;5038595;28;20033;-66
2021/09/02 00:40:39;;;;;;;8.15;6.43;;;;;;;;;;5029016;28;20033;-66
2021/09/02 00:43:05;;;;;;;7.20;6.10;;;;;;;;;;5029666;28;20044;-66
2021/09/02 00:45:32;;;;;;;8.45;5.82;;;;;;;;;;5027762;28;20037;-66
2021/09/02 00:47:58;;;;;;;9.27;6.20;;;;;;;;;;5034775;28;20048;-66
2021/09/02 00:50:24;;;;;;;7.57;5.88;;;;;;;;;;5026092;28;20037;-66
2021/09/02 00:52:51;;;;;;;7.57;5.88;;;;;;;;;;5034140;28;21157;-66
2021/09/02 00:55:17;;;;;;;7.00;5.95;;;;;;;;;;5033615;28;20144;-66
2021/09/02 00:57:43;;;;;;;6.78;5.25;;;;;;;;;;5033624;28;20045;-66
2021/09/02 01:00:11;;;;;;;8.10;5.72;;;;;;;;;;5036181;28;20060;-66
2021/09/02 01:02:37;;;;;;;8.10;6.05;;;;;;;;;;5036331;28;20382;-68
2021/09/02 01:05:04;;;;;;;8.07;6.20;;;;;;;;;;5038447;28;20404;-66
2021/09/02 01:07:31;;;;;;;7.40;5.97;;;;;;;;;;5037379;28;20053;-66
2021/09/02 01:09:58;;;;;;;8.27;6.65;;;;;;;;;;5041405;28;20132;-66
2021/09/02 01:12:30;;;;;;;6.70;5.68;;;;;;;;;;5036182;28;20045;-66
2021/09/02 01:14:57;;;;;;;6.07;5.25;;;;;;;;;;5040272;28;20049;-66
2021/09/02 01:17:24;;;;;;;6.88;6.15;;;;;;;;;;5038110;28;20040;-66
2021/09/02 01:19:53;;;;;;;8.68;5.93;;;;;;;;;;5040298;28;20049;-65
2021/09/02 01:22:19;;;;;;;6.85;5.32;;;;;;;;;;5041004;28;20132;-65
2021/09/02 01:24:45;;;;;;;6.88;5.45;;;;;;;;;;5038064;28;20131;-65
2021/09/02 01:27:11;;;;;;;7.95;5.68;;;;;;;;;;5035080;28;20045;-66
2021/09/02 01:29:37;;;;;;;6.90;5.10;;;;;;;;;;5039609;28;20116;-65
2021/09/02 01:32:04;;;;;;;9.80;5.43;;;;;;;;;;5033453;28;20060;-65
2021/09/02 01:34:30;;;;;;;7.22;5.57;;;;;;;;;;5038838;28;20037;-65
2021/09/02 01:36:56;;;;;;;6.88;5.00;;;;;;;;;;5039742;28;20084;-65
2021/09/02 01:39:22;;;;;;;7.43;5.22;;;;;;;;;;5039388;28;20559;-66
2021/09/02 01:41:48;;;;;;;6.88;5.25;;;;;;;;;;5039139;28;20043;-65
2021/09/02 01:44:14;;;;;;;6.40;5.07;;;;;;;;;;5029232;28;20041;-65
2021/09/02 01:46:40;;;;;;;6.30;5.35;;;;;;;;;;5037864;28;20390;-65
2021/09/02 01:49:06;;;;;;;7.38;5.40;;;;;;;;;;5033575;28;20076;-66
2021/09/02 01:51:32;;;;;;;6.65;5.35;;;;;;;;;;5041487;28;20053;-65
2021/09/02 01:53:58;;;;;;;11.15;6.55;;;;;;;;;;5031068;28;20507;-65
2021/09/02 01:56:24;;;;;;;7.43;5.45;;;;;;;;;;5039047;28;20191;-65
2021/09/02 01:58:50;;;;;;;8.80;6.22;;;;;;;;;;5038211;28;20041;-65
2021/09/02 02:01:16;;;;;;;6.93;5.95;;;;;;;;;;5041437;28;20560;-65
2021/09/02 02:03:42;;;;;;;6.00;5.18;;;;;;;;;;5031320;28;20092;-66
2021/09/02 02:06:08;;;;;;;8.48;5.95;;;;;;;;;;5039502;28;20054;-65
2021/09/02 02:08:34;;;;;;;5.88;4.90;;;;;;;;;;5033261;28;21173;-66
2021/09/02 02:11:00;;;;;;;6.45;4.90;;;;;;;;;;5034831;28;20045;-65
2021/09/02 02:13:27;;;;;;;6.90;5.43;;;;;;;;;;5038239;28;20040;-66
2021/09/02 02:15:53;;;;;;;6.82;4.90;;;;;;;;;;5035641;28;20061;-66
2021/09/02 02:18:19;;;;;;;5.88;4.85;;;;;;;;;;5041795;28;20378;-66
2021/09/02 02:20:45;;;;;;;7.50;5.22;;;;;;;;;;5033108;28;20067;-66
2021/09/02 02:23:11;;;;;;;10.52;5.95;;;;;;;;;;5034913;28;20041;-66
2021/09/02 02:25:37;;;;;;;7.93;5.50;;;;;;;;;;5028157;28;20052;-66
2021/09/02 02:28:03;;;;;;;6.55;5.05;;;;;;;;;;5037202;28;20884;-66
2021/09/02 02:30:29;;;;;;;8.23;5.32;;;;;;;;;;5031308;28;20053;-66
2021/09/02 02:32:55;;;;;;;7.78;5.25;;;;;;;;;;5034513;28;20476;-66
2021/09/02 02:35:21;;;;;;;7.20;5.13;;;;;;;;;;5032186;28;20135;-66
2021/09/02 02:37:48;;;;;;;8.50;6.00;;;;;;;;;;5036279;28;20581;-66
2021/09/02 02:40:15;;;;;;;7.32;5.53;;;;;;;;;;5027254;28;20048;-65
2021/09/02 02:42:42;;;;;;;8.88;6.03;;;;;;;;;;5034801;28;20045;-65
2021/09/02 02:45:08;;;;;;;6.55;5.45;;;;;;;;;;5030117;28;20048;-65
2021/09/02 02:47:34;;;;;;;9.85;5.80;;;;;;;;;;5040364;28;20580;-65
2021/09/02 02:50:00;;;;;;;6.82;5.38;;;;;;;;;;5035050;28;20045;-65
2021/09/02 02:52:26;;;;;;;10.68;6.05;;;;;;;;;;5037351;28;20056;-65
2021/09/02 02:54:52;;;;;;;12.13;6.38;;;;;;;;;;5034472;28;20237;-65
2021/09/02 02:57:18;;;;;;;11.60;6.50;;;;;;;;;;5029019;28;20052;-65
2021/09/02 02:59:44;;;;;;;7.95;5.10;;;;;;;;;;5038810;28;20033;-66
2021/09/02 03:02:10;;;;;;;7.40;5.30;;;;;;;;;;5026072;28;20044;-65
2021/09/02 03:04:36;;;;;;;9.45;6.13;;;;;;;;;;5034218;28;20037;-65
2021/09/02 03:07:03;;;;;;;7.97;5.18;;;;;;;;;;5033574;28;20102;-65
2021/09/02 03:09:29;;;;;;;6.82;5.03;;;;;;;;;;5035331;28;20458;-65
2021/09/02 03:11:55;;;;;;;6.75;5.15;;;;;;;;;;5028481;28;20393;-65
2021/09/02 03:14:21;;;;;;;6.70;5.82;;;;;;;;;;5038323;28;20500;-66
2021/09/02 03:16:47;;;;;;;6.43;4.10;;;;;;;;;;5029810;28;20053;-65
2021/09/02 03:19:13;;;;;;;6.82;4.80;;;;;;;;;;5033889;28;23385;-65
2021/09/02 03:21:39;;;;;;;10.20;5.45;;;;;;;;;;5032540;28;20417;-66
2021/09/02 03:24:05;;;;;;;5.40;4.75;;;;;;;;;;5034517;28;20155;-66
2021/09/02 03:26:31;;;;;;;5.18;4.32;;;;;;;;;;5030048;28;20052;-66
2021/09/02 03:28:57;;;;;;;7.13;4.78;;;;;;;;;;5034298;28;20033;-65
2021/09/02 03:31:24;;;;;;;6.07;4.53;;;;;;;;;;5034775;28;20440;-65
2021/09/02 03:33:50;;;;;;;6.13;4.47;;;;;;;;;;5026950;28;20493;-65
2021/09/02 03:36:16;;;;;;;6.72;4.80;;;;;;;;;;5035106;28;20037;-66
2021/09/02 03:38:42;;;;;;;7.07;4.15;;;;;;;;;;5030476;28;20490;-66
2021/09/02 03:41:08;;;;;;;7.78;4.93;;;;;;;;;;5039765;28;20120;-66
2021/09/02 03:43:34;;;;;;;6.10;4.70;;;;;;;;;;5027367;28;20055;-66
2021/09/02 03:46:00;;;;;;;5.05;3.67;;;;;;;;;;5036887;28;20041;-66
2021/09/02 03:48:26;;;;;;;6.50;4.30;;;;;;;;;;5031101;28;20091;-66
2021/09/02 03:50:52;;;;;;;7.03;4.28;;;;;;;;;;5031573;28;20041;-66
2021/09/02 03:53:18;;;;;;;9.00;5.75;;;;;;;;;;5028186;28;20565;-66
2021/09/02 03:55:44;;;;;;;5.57;4.10;;;;;;;;;;5038364;28;20144;-66
2021/09/02 03:58:10;;;;;;;5.72;4.40;;;;;;;;;;5032332;28;20043;-66
2021/09/02 04:00:36;;;;;;;6.82;4.65;;;;;;;;;;5030658;28;20041;-66
2021/09/02 04:03:03;;;;;;;11.80;4.60;;;;;;;;;;5028789;28;24377;-65
2021/09/02 04:05:29;;;;;;;8.07;4.55;;;;;;;;;;5032846;28;20041;-65
2021/09/02 04:07:55;;;;;;;8.18;4.72;;;;;;;;;;5029281;28;20053;-66
2021/09/02 04:10:21;;;;;;;8.13;4.95;;;;;;;;;;5032445;28;20440;-66
2021/09/02 04:12:47;;;;;;;6.65;4.70;;;;;;;;;;5035255;28;20079;-66
2021/09/02 04:15:13;;;;;;;6.72;4.47;;;;;;;;;;5029246;28;20041;-65
2021/09/02 04:17:39;;;;;;;6.95;4.18;;;;;;;;;;5033459;28;20037;-66
2021/09/02 04:20:05;;;;;;;9.45;5.15;;;;;;;;;;5026769;28;20049;-66
2021/09/02 04:22:31;;;;;;;6.18;4.28;;;;;;;;;;5037531;28;20108;-66
2021/09/02 04:24:57;;;;;;;13.57;5.97;;;;;;;;;;5025801;28;20094;-66
2021/09/02 04:27:24;;;;;;;6.90;3.85;;;;;;;;;;5031786;28;20033;-66
2021/09/02 04:29:50;;;;;;;8.68;5.40;;;;;;;;;;5030733;28;20421;-66
2021/09/02 04:32:16;;;;;;;8.15;4.40;;;;;;;;;;5034617;28;20482;-66
2021/09/02 04:34:42;;;;;;;7.85;4.32;;;;;;;;;;5027378;28;20053;-65
2021/09/02 04:37:08;;;;;;;8.52;4.50;;;;;;;;;;5032040;28;20041;-66
2021/09/02 04:39:34;;;;;;;7.68;4.75;;;;;;;;;;5029482;28;20075;-65
2021/09/02 04:42:00;;;;;;;7.40;4.13;;;;;;;;;;5035601;28;20041;-65
2021/09/02 04:44:26;;;;;;;5.13;4.20;;;;;;;;;;5027169;28;20037;-65
2021/09/02 04:46:52;;;;;;;8.40;4.22;;;;;;;;;;5029712;28;20037;-65
2021/09/02 04:49:18;;;;;;;9.10;5.22;;;;;;;;;;5038618;28;20036;-65
2021/09/02 04:51:44;;;;;;;6.53;4.35;;;;;;;;;;5026375;28;20049;-66
2021/09/02 04:54:10;;;;;;;7.57;4.68;;;;;;;;;;5030821;28;20033;-65
2021/09/02 04:56:36;;;;;;;9.18;4.70;;;;;;;;;;5027553;28;20037;-65
2021/09/02 04:59:02;;;;;;;8.27;4.32;;;;;;;;;;5029887;28;20072;-65
2021/09/02 05:01:29;;;;;;;11.95;6.97;;;;;;;;;;5024941;28;20033;-65
2021/09/02 05:03:55;;;;;;;9.98;6.93;;;;;;;;;;5029804;28;20512;-65
2021/09/02 05:06:21;;;;;;;13.52;6.90;;;;;;;;;;5034689;28;20037;-65
2021/09/02 05:08:47;;;;;;;8.00;6.15;;;;;;;;;;5031343;28;20180;-65
2021/09/02 05:11:13;;;;;;;10.93;6.55;;;;;;;;;;5026191;28;20116;-65
2021/09/02 05:13:39;;;;;;;16.60;9.00;;;;;;;;;;5034509;28;20060;-65
2021/09/02 05:16:05;;;;;;;12.10;7.95;;;;;;;;;;5030737;28;20067;-65
2021/09/02 05:18:31;;;;;;;11.18;7.45;;;;;;;;;;5030906;28;20045;-65
2021/09/02 05:20:57;;;;;;;13.38;7.55;;;;;;;;;;5025402;28;20046;-65
2021/09/02 05:23:23;;;;;;;17.13;12.18;;;;;;;;;;5033583;28;20045;-65
2021/09/02 05:25:49;;;;;;;15.48;8.57;;;;;;;;;;5030054;28;20051;-65
2021/09/02 05:28:15;;;;;;;13.82;8.60;;;;;;;;;;5026804;28;20043;-65
2021/09/02 05:30:41;;;;;;;12.32;8.40;;;;;;;;;;5033727;28;20052;-65
2021/09/02 05:33:07;;;;;;;14.55;8.98;;;;;;;;;;5028021;28;20037;-65
2021/09/02 05:35:33;;;;;;;10.40;7.20;;;;;;;;;;5033969;28;20065;-65
2021/09/02 05:37:59;;;;;;;14.48;8.40;;;;;;;;;;5025803;28;20431;-65
2021/09/02 05:40:25;;;;;;;12.32;7.63;;;;;;;;;;5034169;28;20478;-65
2021/09/02 05:42:51;;;;;;;14.57;8.07;;;;;;;;;;5026849;28;20122;-66
2021/09/02 05:45:17;;;;;;;10.90;7.57;;;;;;;;;;5038104;28;20421;-65
2021/09/02 05:47:44;;;;;;;14.27;7.80;;;;;;;;;;5036524;28;20106;-65
2021/09/02 05:50:10;;;;;;;12.45;6.85;;;;;;;;;;5034063;28;20413;-65
2021/09/02 05:52:36;;;;;;;11.50;6.63;;;;;;;;;;5028368;28;20061;-65
2021/09/02 05:55:02;;;;;;;12.40;7.88;;;;;;;;;;5035257;28;20099;-65
2021/09/02 05:57:28;;;;;;;11.75;7.30;;;;;;;;;;5030581;28;20073;-65
2021/09/02 05:59:55;;;;;;;10.00;6.82;;;;;;;;;;5036590;28;20076;-65
2021/09/02 06:02:21;;;;;;;7.88;6.25;;;;;;;;;;5031129;28;20064;-65
2021/09/02 06:04:47;;;;;;;10.40;6.35;;;;;;;;;;5034256;28;20048;-65
2021/09/02 06:07:13;;;;;;;12.93;7.03;;;;;;;;;;5035675;28;20053;-65
2021/09/02 06:09:39;;;;;;;11.82;7.97;;;;;;;;;;5026427;28;20183;-65
2021/09/02 06:12:05;;;;;;;10.95;6.38;;;;;;;;;;5039741;28;20040;-65
2021/09/02 06:14:31;;;;;;;12.73;6.20;;;;;;;;;;5032174;28;20033;-66
2021/09/02 06:16:57;;;;;;;12.55;7.13;;;;;;;;;;5034028;28;20037;-66
2021/09/02 06:19:23;;;;;;;11.05;6.65;;;;;;;;;;5030014;28;20037;-66
2021/09/02 06:21:49;;;;;;;8.90;6.30;;;;;;;;;;5033191;28;20049;-67
2021/09/02 06:24:15;;;;;;;11.27;6.90;;;;;;;;;;5028761;28;20096;-67
2021/09/02 06:26:41;;;;;;;8.82;6.72;;;;;;;;;;5034593;28;20045;-67
2021/09/02 06:29:07;;;;;;;11.32;6.55;;;;;;;;;;5028673;28;20045;-67
2021/09/02 06:31:34;;;;;;;12.30;7.55;;;;;;;;;;5037413;28;20033;-67
2021/09/02 06:34:00;;;;;;;12.80;7.15;;;;;;;;;;5029843;28;20037;-65
2021/09/02 06:36:26;;;;;;;11.80;7.05;;;;;;;;;;5038170;28;20053;-66
2021/09/02 06:38:52;;;;;;;11.80;6.68;;;;;;;;;;5030601;28;20067;-66
2021/09/02 06:41:18;;;;;;;10.85;6.82;;;;;;;;;;5037279;28;20048;-67
2021/09/02 06:43:44;;;;;;;9.43;6.70;;;;;;;;;;5036995;28;20580;-67
2021/09/02 06:46:10;;;;;;;11.18;6.50;;;;;;;;;;5032209;28;20096;-67
2021/09/02 06:48:36;;;;;;;9.60;6.80;;;;;;;;;;5038737;28;20433;-67
2021/09/02 06:51:02;;;;;;;12.32;6.88;;;;;;;;;;5030642;28;20099;-67
2021/09/02 06:53:28;;;;;;;11.05;6.32;;;;;;;;;;5036833;28;20128;-67
2021/09/02 06:55:54;;;;;;;8.32;6.57;;;;;;;;;;5030621;28;20053;-67
2021/09/02 06:58:20;;;;;;;8.40;6.50;;;;;;;;;;5037241;28;20048;-67
2021/09/02 07:00:46;;;;;;;9.45;6.75;;;;;;;;;;5032143;28;20124;-67
2021/09/02 07:03:12;;;;;;;9.70;6.90;;;;;;;;;;5034134;28;20049;-67
2021/09/02 07:05:38;;;;;;;9.80;6.03;;;;;;;;;;5030444;28;20140;-67
2021/09/02 07:08:05;;;;;;;10.77;7.30;;;;;;;;;;5036041;28;20053;-67
2021/09/02 07:10:31;;;;;;;11.98;6.72;;;;;;;;;;5032621;28;20053;-68
2021/09/02 07:12:57;;;;;;;11.55;6.72;;;;;;;;;;5035315;28;20129;-67
2021/09/02 07:15:23;;;;;;;11.55;6.95;;;;;;;;;;5035856;28;20357;-67
2021/09/02 07:17:49;;;;;;;11.60;7.43;;;;;;;;;;5040146;28;20120;-67
2021/09/02 07:20:15;;;;;;;13.48;7.13;;;;;;;;;;5032457;28;20386;-67
2021/09/02 07:22:41;;;;;;;9.70;6.32;;;;;;;;;;5030564;28;20068;-67
2021/09/02 07:25:07;;;;;;;10.82;7.03;;;;;;;;;;5035133;28;20057;-67
2021/09/02 07:27:34;;;;;;;11.25;7.30;;;;;;;;;;5029684;28;20120;-67
2021/09/02 07:30:00;;;;;;;9.80;7.15;;;;;;;;;;5040920;28;20052;-67
2021/09/02 07:32:26;;;;;;;9.52;6.70;;;;;;;;;;5038323;28;20482;-67
2021/09/02 07:34:52;;;;;;;11.80;6.70;;;;;;;;;;5035536;28;20076;-67
2021/09/02 07:37:20;;;;;;;10.10;6.72;;;;;;;;;;5031709;28;20116;-67
2021/09/02 07:39:46;;;;;;;11.88;7.57;;;;;;;;;;5038967;28;20056;-67
2021/09/02 07:42:12;;;;;;;13.00;7.22;;;;;;;;;;5030281;28;20053;-67
2021/09/02 07:44:38;;;;;;;13.55;7.80;;;;;;;;;;5038599;28;20049;-67
2021/09/02 07:47:04;;;;;;;15.23;7.78;;;;;;;;;;5029512;28;20045;-67
2021/09/02 07:49:30;;;;;;;14.32;7.60;;;;;;;;;;5043596;28;20059;-67
2021/09/02 07:51:57;;;;;;;12.45;7.85;;;;;;;;;;5028890;28;20944;-67
2021/09/02 07:54:23;;;;;;;14.05;7.10;;;;;;;;;;5034883;28;20041;-67
2021/09/02 07:56:49;;;;;;;12.10;6.85;;;;;;;;;;5027754;28;20140;-67
2021/09/02 07:59:16;;;;;;;14.38;7.72;;;;;;;;;;5038496;28;20041;-67
2021/09/02 08:01:42;;;;;;;13.32;8.40;;;;;;;;;;5032411;28;20083;-67
2021/09/02 08:04:08;;;;;;;13.88;9.20;;;;;;;;;;5028004;28;20091;-68
2021/09/02 08:06:34;;;;;;;11.80;8.55;;;;;;;;;;5034369;28;20068;-67
2021/09/02 08:09:00;;;;;;;16.23;8.65;;;;;;;;;;5022002;28;20054;-67
2021/09/02 08:11:28;;;;;;;14.70;8.57;;;;;;;;;;5032096;28;20045;-67
2021/09/02 08:13:54;;;;;;;19.98;9.88;;;;;;;;;;5032745;28;20113;-68
2021/09/02 08:16:22;;;;;;;15.98;9.27;;;;;;;;;;5034642;28;20055;-67
2021/09/02 08:18:48;;;;;;;13.65;9.80;;;;;;;;;;5031693;28;20096;-68
2021/09/02 08:21:15;;;;;;;15.73;10.70;;;;;;;;;;5040004;28;20431;-68
2021/09/02 08:23:41;;;;;;;16.63;11.40;;;;;;;;;;5032033;28;20671;-68
2021/09/02 08:26:07;;;;;;;18.05;11.02;;;;;;;;;;5035795;28;20456;-68
2021/09/02 08:28:33;;;;;;;15.73;10.60;;;;;;;;;;5012351;28;20054;-67
2021/09/02 08:30:59;;;;;;;17.95;10.90;;;;;;;;;;5034661;28;20037;-68
2021/09/02 08:33:25;;;;;;;16.30;10.02;;;;;;;;;;5030917;28;20044;-68
2021/09/02 08:35:52;;;;;;;16.50;10.57;;;;;;;;;;5033857;28;20132;-68
2021/09/02 08:38:18;;;;;;;16.75;10.25;;;;;;;;;;5030555;28;20033;-68
2021/09/02 08:40:45;;;;;;;17.73;11.02;;;;;;;;;;5039716;28;20049;-67
2021/09/02 08:43:11;;;;;;;17.15;10.70;;;;;;;;;;5034546;28;20053;-67
2021/09/02 08:45:38;;;;;;;15.00;10.68;;;;;;;;;;5028202;28;20049;-67
2021/09/02 08:48:04;;;;;;;18.55;10.77;;;;;;;;;;5033561;28;20195;-67
2021/09/02 08:50:33;;;;;;;16.33;11.25;;;;;;;;;;5035497;28;20497;-67
2021/09/02 08:53:00;;;;;;;20.08;11.32;;;;;;;;;;5033310;28;20436;-68
2021/09/02 08:55:26;;;;;;;15.48;10.95;;;;;;;;;;5028224;28;20114;-67
2021/09/02 08:57:54;;;;;;;16.92;11.73;;;;;;;;;;5039854;28;20037;-67
2021/09/02 09:00:21;;;;;;;21.08;13.57;;;;;;;;;;5030852;28;20037;-67
2021/09/02 09:02:48;;;;;;;18.30;12.00;;;;;;;;;;5031330;28;20103;-68
2021/09/02 09:05:18;;;;;;;18.95;12.07;;;;;;;;;;5025913;28;20804;-67
2021/09/02 09:07:45;;;;;;;16.90;10.20;;;;;;;;;;5033359;28;20041;-67
2021/09/02 09:10:16;;;;;;;19.38;11.40;;;;;;;;;;5030791;28;20470;-67
2021/09/02 09:12:43;;;;;;;18.73;11.95;;;;;;;;;;5030162;28;20049;-67
2021/09/02 09:15:15;;;;;;;18.40;11.02;;;;;;;;;;5027491;28;20512;-68
2021/09/02 09:17:41;;;;;;;15.82;10.98;;;;;;;;;;5034008;28;20041;-68
2021/09/02 09:20:07;;;;;;;19.73;11.52;;;;;;;;;;5030008;28;20160;-68
2021/09/02 09:22:34;;;;;;;17.42;11.77;;;;;;;;;;5033973;28;20175;-67
2021/09/02 09:25:01;;;;;;;18.75;11.38;;;;;;;;;;5034840;28;20136;-68
2021/09/02 09:27:47;;;;;;;18.00;11.93;;;;;;;;;;5017120;28;20077;-68
2021/09/02 09:30:13;;;;;;;17.67;11.15;;;;;;;;;;5032974;28;20098;-67
2021/09/02 09:32:40;;;;;;;18.50;11.13;;;;;;;;;;5033851;28;20037;-68
2021/09/02 09:35:07;;;;;;;19.60;11.05;;;;;;;;;;5034032;28;20049;-68
2021/09/02 09:37:33;;;;;;;19.33;11.38;;;;;;;;;;5034843;28;20037;-68
2021/09/02 09:40:10;;;;;;;15.25;10.90;;;;;;;;;;5037362;28;20050;-68
2021/09/02 09:42:36;;;;;;;23.73;11.77;;;;;;;;;;5031104;28;20052;-68
2021/09/02 09:45:02;;;;;;;15.82;10.77;;;;;;;;;;5039970;28;20058;-68
2021/09/02 09:47:34;;;;;;;15.15;10.50;;;;;;;;;;5033627;28;20095;-68
2021/09/02 09:50:01;;;;;;;16.45;10.35;;;;;;;;;;5036647;28;20057;-68
2021/09/02 09:52:27;;;;;;;14.40;9.20;;;;;;;;;;5028739;28;20345;-68
2021/09/02 09:54:55;;;;;;;15.65;9.77;;;;;;;;;;5033641;28;20072;-68
2021/09/02 09:57:21;;;;;;;15.50;9.63;;;;;;;;;;5031109;28;20106;-68
2021/09/02 09:59:49;;;;;;;13.68;9.60;;;;;;;;;;5037563;28;20400;-68
2021/09/02 10:02:17;;;;;;;13.13;9.48;;;;;;;;;;5026480;28;20075;-68
2021/09/02 10:04:43;;;;;;;16.02;9.85;;;;;;;;;;5039564;28;20033;-68
2021/09/02 10:07:11;;;;;;;16.77;9.18;;;;;;;;;;5031430;28;20041;-68
2021/09/02 10:09:38;;;;;;;14.48;9.25;;;;;;;;;;5032611;28;20041;-68
2021/09/02 10:12:04;;;;;;;14.60;10.00;;;;;;;;;;5033254;28;20052;-68
2021/09/02 10:14:30;;;;;;;13.82;9.20;;;;;;;;;;5035791;28;20041;-68
2021/09/02 10:17:01;;;;;;;16.20;8.98;;;;;;;;;;5036909;28;20048;-68
2021/09/02 10:19:27;;;;;;;12.25;8.85;;;;;;;;;;5032397;28;20067;-68
2021/09/02 10:21:53;;;;;;;16.00;9.70;;;;;;;;;;5038821;28;20040;-68
2021/09/02 10:24:37;;;;;;;15.90;9.73;;;;;;;;;;5028435;28;20405;-68
2021/09/02 10:27:18;;;;;;;16.70;9.95;;;;;;;;;;5036620;28;20117;-68
2021/09/02 10:29:45;;;;;;;16.10;9.63;;;;;;;;;;5033303;28;20718;-68
2021/09/02 10:32:24;;;;;;;17.65;10.00;;;;;;;;;;5036428;28;20033;-68
2021/09/02 10:34:50;;;;;;;15.93;9.85;;;;;;;;;;5030528;28;20090;-68
2021/09/02 10:37:35;;;;;;;16.48;10.15;;;;;;;;;;5039403;28;20045;-69
2021/09/02 10:40:06;;;;;;;18.23;11.20;;;;;;;;;;5029687;28;20037;-69
2021/09/02 10:42:57;;;;;;;16.75;11.23;;;;;;;;;;5036356;28;20047;-69
2021/09/02 10:45:30;;;;;;;15.48;10.85;;;;;;;;;;5030660;28;20124;-69
2021/09/02 10:47:56;;;;;;;18.35;10.63;;;;;;;;;;5033697;28;20053;-68
2021/09/02 10:50:27;;;;;;;16.23;10.68;;;;;;;;;;5028994;28;20045;-71
2021/09/02 10:52:53;;;;;;;17.83;10.50;;;;;;;;;;5041595;28;20079;-72
2021/09/02 10:55:30;;;;;;;15.13;10.60;;;;;;;;;;5034494;28;20106;-71
2021/09/02 10:58:01;;;;;;;14.65;9.93;;;;;;;;;;5032548;28;20057;-72
2021/09/02 11:00:38;;;;;;;16.48;10.65;;;;;;;;;;5029885;28;20140;-71
2021/09/02 11:03:15;;;;;;;17.88;10.57;;;;;;;;;;5037699;28;20418;-71
2021/09/02 11:05:47;;;;;;;15.70;10.52;;;;;;;;;;5033032;28;20062;-71
2021/09/02 11:08:13;;;;;;;18.17;10.38;;;;;;;;;;5034344;28;20037;-71
2021/09/02 11:10:39;;;;;;;17.83;11.02;;;;;;;;;;5010850;28;20042;-72
2021/09/02 11:13:06;;;;;;;15.68;11.18;;;;;;;;;;5035420;28;20577;-71
2021/09/02 11:15:35;;;;;;;17.83;11.55;;;;;;;;;;5029544;28;20481;-71
2021/09/02 11:18:02;;;;;;;15.43;10.48;;;;;;;;;;5031193;28;20045;-71
2021/09/02 11:20:29;;;;;;;17.48;10.85;;;;;;;;;;5028328;28;20049;-72
2021/09/02 11:23:10;;;;;;;18.73;11.93;;;;;;;;;;5040892;28;20536;-72
2021/09/02 11:25:40;;;;;;;16.48;11.45;;;;;;;;;;5017325;28;20435;-72
2021/09/02 11:28:06;;;;;;;17.73;10.55;;;;;;;;;;5030199;28;20072;-73
2021/09/02 11:30:34;;;;;;;16.17;10.60;;;;;;;;;;5027565;28;20126;-73
2021/09/02 11:33:01;;;;;;;17.75;12.20;;;;;;;;;;5033316;28;20076;-73
2021/09/02 11:35:27;;;;;;;17.70;11.13;;;;;;;;;;5027827;28;20095;-73
2021/09/02 11:37:53;;;;;;;15.15;10.35;;;;;;;;;;5031110;28;20045;-73
2021/09/02 11:40:21;;;;;;;17.38;11.85;;;;;;;;;;5029088;28;20485;-73
2021/09/02 11:42:47;;;;;;;17.25;11.30;;;;;;;;;;5017162;28;20430;-72
2021/09/02 11:45:17;;;;;;;14.73;10.90;;;;;;;;;;5033876;28;20366;-73
2021/09/02 11:47:44;;;;;;;21.10;11.55;;;;;;;;;;5035229;28;20069;-72
2021/09/02 11:50:10;;;;;;;15.50;10.77;;;;;;;;;;5035071;28;20124;-72
2021/09/02 11:52:39;;;;;;;15.80;10.75;;;;;;;;;;5027984;28;20049;-72
2021/09/02 11:55:06;;;;;;;17.98;11.10;;;;;;;;;;5031249;28;20050;-74
2021/09/02 11:57:32;;;;;;;16.60;10.18;;;;;;;;;;5020285;28;20037;-74
2021/09/02 11:59:58;;;;;;;16.42;11.48;;;;;;;;;;5037854;28;20476;-74
2021/09/02 12:02:24;;;;;;;13.73;10.95;;;;;;;;;;5025104;28;20033;-74
2021/09/02 12:04:51;;;;;;;15.23;11.30;;;;;;;;;;5034977;28;20033;-74
2021/09/02 12:07:18;;;;;;;16.48;10.88;;;;;;;;;;5014061;28;20537;-74
2021/09/02 12:09:48;;;;;;;15.07;10.80;;;;;;;;;;5035815;28;20037;-74
2021/09/02 12:12:26;;;;;;;13.63;10.07;;;;;;;;;;5014937;28;20470;-74
2021/09/02 12:14:52;;;;;;;15.40;10.77;;;;;;;;;;5034318;28;20053;-74
2021/09/02 12:17:18;;;;;;;14.65;10.35;;;;;;;;;;5025832;28;20036;-74
2021/09/02 12:19:55;;;;;;;18.27;10.90;;;;;;;;;;5021612;28;20094;-74
2021/09/02 12:22:23;;;;;;;17.05;10.75;;;;;;;;;;5030139;28;20132;-74
2021/09/02 12:24:49;;;;;;;17.33;10.50;;;;;;;;;;5032622;28;20053;-74
2021/09/02 12:27:15;;;;;;;19.27;10.75;;;;;;;;;;5026968;28;20136;-76
2021/09/02 12:29:46;;;;;;;16.75;10.18;;;;;;;;;;5036253;28;20446;-75
2021/09/02 12:32:15;;;;;;;17.05;11.15;;;;;;;;;;5034789;28;20076;-75
2021/09/02 12:34:42;;;;;;;16.17;9.85;;;;;;;;;;5024807;28;20072;-74
2021/09/02 12:37:10;;;;;;;15.73;10.23;;;;;;;;;;5035130;28;20068;-74
2021/09/02 12:39:37;;;;;;;19.42;10.10;;;;;;;;;;5025181;28;20044;-74
2021/09/02 12:42:05;;;;;;;14.25;9.45;;;;;;;;;;5032544;28;20059;-74
2021/09/02 12:44:35;;;;;;;14.75;9.98;;;;;;;;;;5023115;28;20062;-74
2021/09/02 12:47:13;;;;;;;17.00;10.48;;;;;;;;;;5036769;28;20045;-74
2021/09/02 12:49:45;;;;;;;14.02;9.30;;;;;;;;;;5012896;28;20053;-74
2021/09/02 12:52:11;;;;;;;15.88;9.23;;;;;;;;;;5033433;28;20079;-74
2021/09/02 12:54:56;;;;;;;15.88;8.93;;;;;;;;;;5028480;28;20136;-67
2021/09/02 12:57:22;;;;;;;14.30;9.27;;;;;;;;;;5033248;28;20103;-67
2021/09/02 12:59:48;;;;;;;12.27;8.70;;;;;;;;;;5031542;28;20045;-67
2021/09/02 13:02:14;;;;;;;11.90;8.63;;;;;;;;;;5032445;28;20103;-67
2021/09/02 13:04:40;;;;;;;12.00;8.32;;;;;;;;;;5029747;28;20136;-67
2021/09/02 13:07:06;;;;;;;15.48;8.88;;;;;;;;;;5036066;28;20041;-68
2021/09/02 13:09:32;;;;;;;11.88;7.22;;;;;;;;;;5040296;28;20136;-67
2021/09/02 13:11:58;;;;;;;13.07;8.27;;;;;;;;;;5034801;28;20051;-67
2021/09/02 13:14:25;;;;;;;14.55;8.52;;;;;;;;;;5029309;28;20066;-67
2021/09/02 13:16:51;;;;;;;13.60;8.18;;;;;;;;;;5036713;28;20164;-67
2021/09/02 13:19:18;;;;;;;11.90;7.40;;;;;;;;;;5032613;28;20628;-67
2021/09/02 13:21:44;;;;;;;10.77;8.48;;;;;;;;;;5034435;28;20037;-76
2021/09/02 13:24:10;;;;;;;12.63;7.40;;;;;;;;;;5031294;28;20098;-76
2021/09/02 13:26:36;;;;;;;10.90;7.72;;;;;;;;;;5035961;28;20067;-77
2021/09/02 13:29:02;;;;;;;14.75;8.23;;;;;;;;;;5032354;28;20115;-76
2021/09/02 13:31:28;;;;;;;11.88;7.60;;;;;;;;;;5014474;28;20061;-77
2021/09/02 13:33:54;;;;;;;11.45;7.63;;;;;;;;;;5038877;28;20064;-77
2021/09/02 13:36:20;;;;;;;13.93;7.90;;;;;;;;;;5009529;28;20077;-77
2021/09/02 13:38:47;;;;;;;11.82;8.20;;;;;;;;;;5035986;28;20053;-77
2021/09/02 13:41:13;;;;;;;11.85;7.93;;;;;;;;;;5016377;28;20049;-77
2021/09/02 13:43:39;;;;;;;12.98;8.00;;;;;;;;;;5037387;28;20131;-76
2021/09/02 13:46:06;;;;;;;12.75;8.77;;;;;;;;;;5030710;28;20505;-76
2021/09/02 13:48:32;;;;;;;14.23;8.88;;;;;;;;;;5035768;28;20057;-76
2021/09/02 13:50:59;;;;;;;16.40;8.50;;;;;;;;;;5030640;28;20107;-75
2021/09/02 13:53:25;;;;;;;13.15;8.88;;;;;;;;;;5030173;28;20141;-76
2021/09/02 13:55:52;;;;;;;15.55;9.20;;;;;;;;;;5027512;28;20072;-76
2021/09/02 13:58:18;;;;;;;13.05;9.00;;;;;;;;;;5020380;28;20152;-75
2021/09/02 14:00:44;;;;;;;13.85;8.23;;;;;;;;;;5035989;28;20056;-75
2021/09/02 14:03:10;;;;;;;18.80;9.85;;;;;;;;;;5027414;28;20042;-74
2021/09/02 14:05:37;;;;;;;12.77;9.13;;;;;;;;;;5034577;28;20050;-72
2021/09/02 14:08:04;;;;;;;13.05;9.50;;;;;;;;;;5030607;28;20128;-73
2021/09/02 14:10:30;;;;;;;14.18;9.93;;;;;;;;;;5036244;28;20049;-72
2021/09/02 14:12:56;;;;;;;18.25;10.68;;;;;;;;;;5027670;28;20042;-71
2021/09/02 14:15:22;;;;;;;16.38;9.95;;;;;;;;;;5037962;28;20095;-73
2021/09/02 14:17:48;;;;;;;13.13;9.82;;;;;;;;;;5033986;28;20053;-73
2021/09/02 14:20:15;;;;;;;15.88;9.90;;;;;;;;;;5037002;28;20075;-72
2021/09/02 14:22:42;;;;;;;16.02;10.55;;;;;;;;;;5031884;28;20081;-74
2021/09/02 14:25:09;;;;;;;18.25;10.57;;;;;;;;;;5019584;28;20049;-73
2021/09/02 14:27:35;;;;;;;15.07;10.27;;;;;;;;;;5028812;28;20082;-75
2021/09/02 14:30:02;;;;;;;15.75;10.68;;;;;;;;;;5030795;28;20118;-73